createdAt,value
2022-10-14T00:00:48.562Z,11.39
2022-10-14T00:01:43.632Z,11.51
2022-10-14T00:02:17.713Z,11.48
2022-10-14T00:03:04.546Z,11.53
2022-10-14T00:03:38.618Z,11.44
2022-10-14T00:04:25.541Z,11.38
2022-10-14T00:04:59.651Z,11.46
2022-10-14T00:05:47.557Z,11.48
2022-10-14T00:06:25.645Z,11.46
2022-10-14T00:07:05.580Z,11.34
2022-10-14T00:07:46.629Z,11.41
2022-10-14T00:08:27.540Z,11.39
2022-10-14T00:09:13.608Z,11.40
2022-10-14T00:09:53.538Z,11.40
2022-10-14T00:10:33.615Z,11.40
2022-10-14T00:11:17.575Z,11.39
2022-10-14T00:11:57.658Z,11.44
2022-10-14T00:12:38.581Z,11.46
2022-10-14T00:13:18.679Z,11.42
2022-10-14T00:14:09.546Z,11.49
2022-10-14T00:14:49.613Z,11.50
2022-10-14T00:15:29.553Z,11.50
2022-10-14T00:16:11.601Z,11.43
2022-10-14T00:16:54.539Z,11.41
2022-10-14T00:17:34.676Z,11.43
2022-10-14T00:18:15.581Z,11.41
2022-10-14T00:18:56.619Z,11.40
2022-10-14T00:19:37.544Z,11.53
2022-10-14T00:20:17.601Z,11.48
2022-10-14T00:21:07.536Z,11.51
2022-10-14T00:21:50.603Z,11.53
2022-10-14T00:22:31.528Z,11.53
2022-10-14T00:23:11.595Z,11.61
2022-10-14T00:23:52.547Z,11.59
2022-10-14T00:24:32.638Z,11.58
2022-10-14T00:25:13.536Z,11.60
2022-10-14T00:25:53.602Z,11.51
2022-10-14T00:26:39.550Z,11.59
2022-10-14T00:27:19.796Z,11.58
2022-10-14T00:28:00.529Z,11.56
2022-10-14T00:28:40.672Z,11.61
2022-10-14T00:29:25.569Z,11.52
2022-10-14T00:30:05.593Z,11.61
2022-10-14T00:30:46.537Z,11.67
2022-10-14T00:31:27.635Z,11.49
2022-10-14T00:32:08.525Z,11.61
2022-10-14T00:32:48.593Z,11.56
2022-10-14T00:33:29.534Z,11.63
2022-10-14T00:34:12.984Z,11.67
2022-10-14T00:34:52.554Z,11.70
2022-10-14T00:35:32.582Z,11.67
2022-10-14T00:36:14.513Z,11.66
2022-10-14T00:36:54.573Z,11.64
2022-10-14T00:37:35.524Z,11.65
2022-10-14T00:38:15.589Z,11.60
2022-10-14T00:38:55.544Z,11.69
2022-10-14T00:39:35.597Z,11.63
2022-10-14T00:40:16.615Z,11.73
2022-10-14T00:40:56.597Z,11.74
2022-10-14T00:41:40.508Z,11.70
2022-10-14T00:42:21.577Z,11.76
2022-10-14T00:43:01.509Z,11.78
2022-10-14T00:44:07.634Z,11.75
2022-10-14T00:44:50.521Z,11.80
2022-10-14T00:45:31.560Z,11.81
2022-10-14T00:46:05.585Z,11.80
2022-10-14T00:46:55.512Z,11.71
2022-10-14T00:47:29.609Z,11.78
2022-10-14T00:48:16.496Z,11.79
2022-10-14T00:48:50.581Z,11.80
2022-10-14T00:49:43.509Z,11.84
2022-10-14T00:50:19.602Z,11.83
2022-10-14T00:51:01.545Z,11.79
2022-10-14T00:51:42.587Z,11.81
2022-10-14T00:52:28.505Z,11.84
2022-10-14T00:53:08.569Z,11.81
2022-10-14T00:53:50.514Z,11.84
2022-10-14T00:54:36.581Z,11.84
2022-10-14T00:55:24.508Z,11.81
2022-10-14T00:56:11.521Z,11.85
2022-10-14T00:57:06.521Z,11.78
2022-10-14T00:58:00.517Z,11.88
2022-10-14T00:58:54.516Z,11.87
2022-10-14T00:59:48.493Z,11.89
2022-10-14T01:00:42.533Z,11.91
2022-10-14T01:01:29.528Z,11.90
2022-10-14T01:02:03.562Z,11.84
2022-10-14T01:02:51.498Z,11.80
2022-10-14T01:03:28.580Z,11.76
2022-10-14T01:04:15.503Z,11.82
2022-10-14T01:04:49.579Z,11.79
2022-10-14T01:05:43.513Z,11.85
2022-10-14T01:07:01.529Z,11.89
2022-10-14T01:08:28.499Z,11.87
2022-10-14T01:09:30.484Z,11.88
2022-10-14T01:10:49.524Z,11.77
2022-10-14T01:12:28.524Z,11.92
2022-10-14T01:13:53.481Z,11.84
2022-10-14T01:14:58.474Z,11.90
2022-10-14T01:16:01.473Z,11.95
2022-10-14T01:17:13.495Z,11.89
2022-10-14T01:18:49.515Z,11.89
2022-10-14T01:20:05.105Z,11.94
2022-10-14T01:21:01.488Z,11.94
2022-10-14T01:22:12.023Z,11.96
2022-10-14T01:23:47.604Z,11.96
2022-10-14T01:24:51.521Z,11.96
2022-10-14T01:25:37.576Z,11.99
2022-10-14T01:26:31.475Z,12.01
2022-10-14T01:27:42.544Z,12.00
2022-10-14T01:28:49.551Z,11.99
2022-10-14T01:30:17.504Z,11.97
2022-10-14T01:31:21.474Z,12.01
2022-10-14T01:32:24.761Z,11.99
2022-10-14T01:33:33.485Z,12.00
2022-10-14T01:34:38.452Z,12.04
2022-10-14T01:36:20.534Z,11.98
2022-10-14T01:37:21.477Z,12.05
2022-10-14T01:38:22.489Z,12.05
2022-10-14T01:39:37.477Z,12.08
2022-10-14T01:40:50.456Z,12.09
2022-10-14T01:41:42.641Z,12.13
2022-10-14T01:42:26.547Z,12.06
2022-10-14T01:43:14.483Z,12.13
2022-10-14T01:43:50.769Z,12.05
2022-10-14T01:44:39.469Z,12.13
2022-10-14T01:45:19.541Z,12.06
2022-10-14T01:46:09.454Z,12.15
2022-10-14T01:46:53.514Z,12.17
2022-10-14T01:47:49.457Z,12.14
2022-10-14T01:48:48.477Z,12.14
2022-10-14T01:49:57.465Z,12.12
2022-10-14T01:50:52.494Z,12.17
2022-10-14T01:52:01.485Z,12.16
2022-10-14T01:53:11.461Z,12.20
2022-10-14T01:54:14.448Z,12.20
2022-10-14T01:55:12.473Z,12.12
2022-10-14T01:56:08.461Z,12.14
2022-10-14T01:57:03.480Z,12.14
2022-10-14T01:57:58.450Z,12.18
2022-10-14T01:58:53.441Z,12.19
2022-10-14T01:59:49.445Z,12.20
2022-10-14T02:00:43.437Z,12.15
2022-10-14T02:01:38.526Z,12.21
2022-10-14T02:02:31.490Z,12.19
2022-10-14T02:03:05.574Z,12.19
2022-10-14T02:03:54.441Z,12.24
2022-10-14T02:04:29.517Z,12.23
2022-10-14T02:05:52.451Z,12.27
2022-10-14T02:06:40.505Z,12.22
2022-10-14T02:08:03.458Z,12.27
2022-10-14T02:09:14.770Z,12.28
2022-10-14T02:10:10.445Z,12.23
2022-10-14T02:11:09.553Z,12.32
2022-10-14T02:12:45.431Z,12.28
2022-10-14T02:14:11.591Z,12.28
2022-10-14T02:15:35.436Z,12.27
2022-10-14T02:16:55.437Z,12.31
2022-10-14T02:18:41.422Z,12.25
2022-10-14T02:19:51.448Z,12.29
2022-10-14T02:20:37.400Z,12.36
2022-10-14T02:21:33.445Z,12.33
2022-10-14T02:22:22.852Z,12.37
2022-10-14T02:23:30.417Z,12.33
2022-10-14T02:24:29.508Z,12.27
2022-10-14T02:25:19.455Z,12.39
2022-10-14T02:26:01.499Z,12.33
2022-10-14T02:26:42.416Z,12.36
2022-10-14T02:27:25.485Z,12.37
2022-10-14T02:28:07.437Z,12.37
2022-10-14T02:28:49.658Z,12.42
2022-10-14T02:29:30.428Z,12.29
2022-10-14T02:30:11.497Z,12.36
2022-10-14T02:31:00.435Z,12.40
2022-10-14T02:31:42.507Z,12.33
2022-10-14T02:32:25.414Z,12.36
2022-10-14T02:33:07.473Z,12.35
2022-10-14T02:33:50.393Z,12.28
2022-10-14T02:34:33.519Z,12.37
2022-10-14T02:35:15.426Z,12.37
2022-10-14T02:35:56.495Z,12.33
2022-10-14T02:36:37.486Z,12.38
2022-10-14T02:37:19.967Z,12.34
2022-10-14T02:38:01.419Z,12.39
2022-10-14T02:38:42.469Z,12.44
2022-10-14T02:39:29.406Z,12.43
2022-10-14T02:40:21.527Z,12.31
2022-10-14T02:41:01.422Z,12.37
2022-10-14T02:41:49.503Z,12.41
2022-10-14T02:42:23.567Z,12.45
2022-10-14T02:43:10.408Z,12.37
2022-10-14T02:43:45.768Z,12.42
2022-10-14T02:44:32.416Z,12.43
2022-10-14T02:45:07.673Z,12.45
2022-10-14T02:45:56.401Z,12.36
2022-10-14T02:46:30.137Z,12.41
2022-10-14T02:47:10.413Z,12.40
2022-10-14T02:47:44.489Z,12.39
2022-10-14T02:48:18.104Z,12.42
2022-10-14T02:48:59.406Z,12.46
2022-10-14T02:49:33.456Z,12.45
2022-10-14T02:50:09.194Z,12.41
2022-10-14T02:50:50.389Z,12.36
2022-10-14T02:51:24.478Z,12.43
2022-10-14T02:51:58.179Z,12.49
2022-10-14T02:52:38.421Z,12.51
2022-10-14T02:53:12.468Z,12.48
2022-10-14T02:53:46.108Z,12.47
2022-10-14T02:54:27.404Z,12.49
2022-10-14T02:55:01.499Z,12.51
2022-10-14T02:55:35.141Z,12.50
2022-10-14T02:56:16.408Z,12.53
2022-10-14T02:56:50.459Z,12.39
2022-10-14T02:57:24.125Z,12.46
2022-10-14T02:58:04.408Z,12.41
2022-10-14T02:58:38.441Z,12.53
2022-10-14T02:59:12.223Z,12.45
2022-10-14T02:59:53.380Z,12.46
2022-10-14T03:00:27.468Z,12.45
2022-10-14T03:01:01.353Z,12.46
2022-10-14T03:01:42.437Z,12.39
2022-10-14T03:02:16.618Z,12.47
2022-10-14T03:02:50.086Z,12.42
2022-10-14T03:03:30.412Z,12.39
2022-10-14T03:04:04.475Z,12.40
2022-10-14T03:04:38.114Z,12.42
2022-10-14T03:05:19.374Z,12.43
2022-10-14T03:05:53.464Z,12.44
2022-10-14T03:06:28.466Z,12.44
2022-10-14T03:07:09.389Z,12.48
2022-10-14T03:07:43.462Z,12.40
2022-10-14T03:08:17.662Z,12.46
2022-10-14T03:08:58.399Z,12.47
2022-10-14T03:09:32.471Z,12.40
2022-10-14T03:10:06.356Z,12.42
2022-10-14T03:10:47.365Z,12.34
2022-10-14T03:11:21.438Z,12.34
2022-10-14T03:11:55.077Z,12.40
2022-10-14T03:12:36.365Z,12.37
2022-10-14T03:13:10.483Z,12.27
2022-10-14T03:13:44.109Z,12.37
2022-10-14T03:14:24.406Z,12.36
2022-10-14T03:14:58.535Z,12.30
2022-10-14T03:15:33.088Z,12.32
2022-10-14T03:16:14.372Z,12.27
2022-10-14T03:16:48.442Z,12.30
2022-10-14T03:17:22.094Z,12.24
2022-10-14T03:18:02.357Z,12.30
2022-10-14T03:18:36.424Z,12.30
2022-10-14T03:19:10.132Z,12.32
2022-10-14T03:19:50.405Z,12.26
2022-10-14T03:20:24.468Z,12.34
2022-10-14T03:21:11.368Z,12.33
2022-10-14T03:21:45.522Z,12.21
2022-10-14T03:22:33.371Z,12.31
2022-10-14T03:23:07.445Z,12.26
2022-10-14T03:23:54.357Z,12.29
2022-10-14T03:24:28.433Z,12.22
2022-10-14T03:25:16.387Z,12.22
2022-10-14T03:25:53.420Z,12.21
2022-10-14T03:26:40.367Z,12.15
2022-10-14T03:27:14.463Z,12.13
2022-10-14T03:28:01.365Z,12.14
2022-10-14T03:28:35.517Z,12.16
2022-10-14T03:29:22.367Z,12.18
2022-10-14T03:29:56.437Z,12.11
2022-10-14T03:30:37.394Z,12.17
2022-10-14T03:31:17.449Z,12.08
2022-10-14T03:31:58.359Z,12.07
2022-10-14T03:32:38.432Z,12.13
2022-10-14T03:33:20.503Z,12.05
2022-10-14T03:34:01.440Z,12.13
2022-10-14T03:34:41.356Z,12.09
2022-10-14T03:35:21.453Z,12.16
2022-10-14T03:36:01.388Z,12.04
2022-10-14T03:36:41.425Z,11.95
2022-10-14T03:37:22.352Z,11.99
2022-10-14T03:38:03.838Z,11.96
2022-10-14T03:38:43.345Z,12.02
2022-10-14T03:39:23.472Z,11.92
2022-10-14T03:40:03.362Z,12.03
2022-10-14T03:40:43.429Z,11.99
2022-10-14T03:41:23.378Z,12.03
2022-10-14T03:42:03.437Z,12.01
2022-10-14T03:42:44.345Z,12.02
2022-10-14T03:43:24.430Z,11.96
2022-10-14T03:44:04.336Z,11.98
2022-10-14T03:44:44.922Z,12.03
2022-10-14T03:45:25.346Z,12.04
2022-10-14T03:46:05.422Z,11.95
2022-10-14T03:46:45.455Z,11.84
2022-10-14T03:47:25.443Z,11.94
2022-10-14T03:48:06.349Z,12.03
2022-10-14T03:48:46.457Z,12.02
2022-10-14T03:49:27.338Z,12.00
2022-10-14T03:50:07.442Z,12.03
2022-10-14T03:50:47.335Z,12.02
2022-10-14T03:51:27.483Z,12.00
2022-10-14T03:52:07.371Z,11.99
2022-10-14T03:52:49.192Z,12.00
2022-10-14T03:53:33.360Z,11.92
2022-10-14T03:54:13.514Z,12.05
2022-10-14T03:54:53.341Z,12.09
2022-10-14T03:55:33.438Z,11.94
2022-10-14T03:56:14.325Z,11.98
2022-10-14T03:56:56.413Z,12.04
2022-10-14T03:57:36.371Z,12.02
2022-10-14T03:58:18.433Z,12.03
2022-10-14T03:58:59.355Z,12.02
2022-10-14T03:59:39.411Z,12.06
2022-10-14T04:00:20.341Z,12.00
2022-10-14T04:01:00.489Z,11.93
2022-10-14T04:01:40.395Z,11.94
2022-10-14T04:02:20.694Z,11.88
2022-10-14T04:03:00.353Z,11.93
2022-10-14T04:03:41.368Z,11.85
2022-10-14T04:04:22.318Z,11.76
2022-10-14T04:05:02.377Z,11.78
2022-10-14T04:05:43.332Z,11.80
2022-10-14T04:06:38.361Z,11.84
2022-10-14T04:07:32.326Z,11.78
2022-10-14T04:08:19.359Z,11.84
2022-10-14T04:08:53.403Z,11.81
2022-10-14T04:09:40.331Z,11.84
2022-10-14T04:10:15.373Z,11.75
2022-10-14T04:11:03.309Z,11.80
2022-10-14T04:11:37.368Z,11.79
2022-10-14T04:12:24.532Z,11.75
2022-10-14T04:13:00.424Z,11.76
2022-10-14T04:13:41.357Z,11.71
2022-10-14T04:14:21.377Z,11.65
2022-10-14T04:15:03.313Z,11.73
2022-10-14T04:15:43.416Z,11.74
2022-10-14T04:16:24.313Z,11.70
2022-10-14T04:17:04.377Z,11.59
2022-10-14T04:17:44.297Z,11.65
2022-10-14T04:18:24.392Z,11.72
2022-10-14T04:19:05.366Z,11.71
2022-10-14T04:19:45.434Z,11.67
2022-10-14T04:20:26.321Z,11.76
2022-10-14T04:21:20.378Z,11.74
2022-10-14T04:22:00.302Z,11.72
2022-10-14T04:22:40.398Z,11.67
2022-10-14T04:23:20.298Z,11.72
2022-10-14T04:24:03.694Z,11.70
2022-10-14T04:24:46.333Z,11.64
2022-10-14T04:25:26.380Z,11.72
2022-10-14T04:26:11.322Z,11.66
2022-10-14T04:26:52.091Z,11.71
2022-10-14T04:27:32.297Z,11.72
2022-10-14T04:28:12.369Z,11.70
2022-10-14T04:28:53.362Z,11.67
2022-10-14T04:29:33.361Z,11.68
2022-10-14T04:30:14.330Z,11.63
2022-10-14T04:30:54.361Z,11.62
2022-10-14T04:31:35.308Z,11.70
2022-10-14T04:32:15.393Z,11.74
2022-10-14T04:32:55.306Z,11.67
2022-10-14T04:33:35.553Z,11.67
2022-10-14T04:34:18.314Z,11.71
2022-10-14T04:34:58.433Z,11.67
2022-10-14T04:35:38.351Z,11.65
2022-10-14T04:36:18.388Z,11.75
2022-10-14T04:37:02.280Z,11.71
2022-10-14T04:37:42.345Z,11.72
2022-10-14T04:38:22.295Z,11.75
2022-10-14T04:39:02.406Z,11.69
2022-10-14T04:39:42.305Z,11.66
2022-10-14T04:40:25.624Z,11.67
2022-10-14T04:41:06.316Z,11.65
2022-10-14T04:41:46.360Z,11.68
2022-10-14T04:42:27.276Z,11.66
2022-10-14T04:43:07.368Z,11.64
2022-10-14T04:43:47.272Z,11.61
2022-10-14T04:44:27.416Z,11.56
2022-10-14T04:45:08.300Z,11.61
2022-10-14T04:45:49.372Z,11.68
2022-10-14T04:46:29.323Z,11.62
2022-10-14T04:47:23.302Z,11.66
2022-10-14T04:48:17.285Z,11.63
2022-10-14T04:49:11.283Z,11.65
2022-10-14T04:50:05.284Z,11.66
2022-10-14T04:50:59.307Z,11.66
2022-10-14T04:51:46.392Z,11.59
2022-10-14T04:52:20.736Z,11.70
2022-10-14T04:53:13.231Z,11.70
2022-10-14T04:53:47.340Z,11.72
2022-10-14T04:54:34.276Z,11.67
2022-10-14T04:55:08.359Z,11.68
2022-10-14T04:55:56.260Z,11.75
2022-10-14T04:56:30.327Z,11.71
2022-10-14T04:57:11.291Z,11.67
2022-10-14T04:57:51.396Z,11.75
2022-10-14T04:58:31.295Z,11.75
2022-10-14T04:59:13.035Z,11.68
2022-10-14T04:59:53.277Z,11.75
2022-10-14T05:00:33.392Z,11.71
2022-10-14T05:01:13.270Z,11.76
2022-10-14T05:01:53.374Z,11.77
2022-10-14T05:02:33.278Z,11.59
2022-10-14T05:03:13.378Z,11.66
2022-10-14T05:03:55.266Z,11.72
2022-10-14T05:04:35.387Z,11.74
2022-10-14T05:05:16.270Z,11.75
2022-10-14T05:05:57.334Z,11.73
2022-10-14T05:06:38.267Z,11.68
2022-10-14T05:07:18.414Z,11.75
2022-10-14T05:07:58.312Z,11.71
2022-10-14T05:08:38.340Z,11.66
2022-10-14T05:09:19.277Z,11.72
2022-10-14T05:09:59.371Z,11.74
2022-10-14T05:10:40.270Z,11.68
2022-10-14T05:11:20.361Z,11.77
2022-10-14T05:12:00.277Z,11.71
2022-10-14T05:12:40.333Z,11.70
2022-10-14T05:13:20.304Z,11.80
2022-10-14T05:14:00.335Z,11.77
2022-10-14T05:14:41.255Z,11.75
2022-10-14T05:15:21.566Z,11.80
2022-10-14T05:16:01.244Z,11.74
2022-10-14T05:16:41.427Z,11.73
2022-10-14T05:17:22.278Z,11.82
2022-10-14T05:18:02.353Z,11.76
2022-10-14T05:18:42.293Z,11.82
2022-10-14T05:19:22.325Z,11.77
2022-10-14T05:20:03.253Z,11.81
2022-10-14T05:20:43.337Z,11.77
2022-10-14T05:21:23.247Z,11.78
2022-10-14T05:22:04.315Z,11.79
2022-10-14T05:22:45.235Z,11.78
2022-10-14T05:23:25.376Z,11.79
2022-10-14T05:24:05.284Z,11.81
2022-10-14T05:24:45.516Z,11.72
2022-10-14T05:25:26.253Z,11.77
2022-10-14T05:26:06.960Z,11.73
2022-10-14T05:26:47.253Z,11.75
2022-10-14T05:27:27.675Z,11.81
2022-10-14T05:28:07.249Z,11.80
2022-10-14T05:28:47.379Z,11.77
2022-10-14T05:29:27.273Z,11.82
2022-10-14T05:30:07.352Z,11.80
2022-10-14T05:30:49.245Z,11.83
2022-10-14T05:31:29.361Z,11.81
2022-10-14T05:32:10.249Z,11.76
2022-10-14T05:32:50.321Z,11.83
2022-10-14T05:33:31.238Z,11.85
2022-10-14T05:34:11.313Z,11.73
2022-10-14T05:34:51.272Z,11.79
2022-10-14T05:35:57.074Z,11.86
2022-10-14T05:36:32.237Z,11.85
2022-10-14T05:37:12.316Z,11.80
2022-10-14T05:37:52.240Z,11.77
2022-10-14T05:38:33.556Z,11.85
2022-10-14T05:39:18.237Z,11.79
2022-10-14T05:40:05.271Z,11.86
2022-10-14T05:41:09.227Z,11.88
2022-10-14T05:42:03.284Z,11.90
2022-10-14T05:42:57.220Z,11.92
2022-10-14T05:43:51.238Z,11.93
2022-10-14T05:44:45.245Z,11.88
2022-10-14T05:45:25.260Z,11.94
2022-10-14T05:46:19.237Z,11.83
2022-10-14T05:47:13.216Z,11.82
2022-10-14T05:48:07.208Z,11.88
2022-10-14T05:49:01.213Z,11.86
2022-10-14T05:49:55.279Z,11.85
2022-10-14T05:50:42.257Z,11.85
2022-10-14T05:51:16.610Z,11.90
2022-10-14T05:52:03.230Z,11.86
2022-10-14T05:52:37.301Z,11.93
2022-10-14T05:53:24.213Z,11.89
2022-10-14T05:53:58.276Z,11.85
2022-10-14T05:54:45.239Z,11.69
2022-10-14T05:55:19.270Z,11.64
2022-10-14T05:56:15.588Z,11.49
2022-10-14T05:56:49.505Z,11.44
2022-10-14T05:57:36.228Z,11.50
2022-10-14T05:58:10.319Z,11.44
2022-10-14T05:58:57.219Z,11.44
2022-10-14T05:59:33.255Z,11.53
2022-10-14T06:00:25.602Z,11.40
2022-10-14T06:01:00.478Z,11.38
2022-10-14T06:01:43.232Z,11.45
2022-10-14T06:02:55.363Z,11.53
2022-10-14T06:03:36.225Z,11.51
2022-10-14T06:04:26.271Z,11.61
2022-10-14T06:05:06.209Z,11.60
2022-10-14T06:05:46.356Z,11.58
2022-10-14T06:06:29.123Z,11.64
2022-10-14T06:07:10.253Z,11.59
2022-10-14T06:07:50.269Z,11.68
2022-10-14T06:08:31.192Z,11.63
2022-10-14T06:09:11.702Z,11.58
2022-10-14T06:09:52.224Z,11.67
2022-10-14T06:10:32.353Z,11.75
2022-10-14T06:11:13.227Z,11.79
2022-10-14T06:11:53.273Z,11.82
2022-10-14T06:12:34.222Z,11.80
2022-10-14T06:13:14.319Z,11.77
2022-10-14T06:13:54.208Z,11.86
2022-10-14T06:14:35.537Z,11.90
2022-10-14T06:15:16.193Z,11.86
2022-10-14T06:15:56.293Z,11.88
2022-10-14T06:16:36.214Z,11.89
2022-10-14T06:17:17.719Z,11.98
2022-10-14T06:17:58.238Z,12.05
2022-10-14T06:18:39.261Z,12.05
2022-10-14T06:19:19.213Z,12.07
2022-10-14T06:19:59.245Z,11.94
2022-10-14T06:20:39.179Z,12.04
2022-10-14T06:21:19.249Z,12.09
2022-10-14T06:21:59.181Z,12.12
2022-10-14T06:22:39.268Z,12.18
2022-10-14T06:23:19.247Z,12.13
2022-10-14T06:23:59.282Z,12.16
2022-10-14T06:24:39.204Z,12.12
2022-10-14T06:25:20.335Z,12.15
2022-10-14T06:26:01.189Z,12.16
2022-10-14T06:26:41.473Z,12.19
2022-10-14T06:27:21.177Z,12.28
2022-10-14T06:28:02.247Z,12.22
2022-10-14T06:28:43.272Z,12.21
2022-10-14T06:29:26.355Z,12.36
2022-10-14T06:30:06.200Z,12.39
2022-10-14T06:30:47.249Z,12.45
2022-10-14T06:31:31.363Z,12.48
2022-10-14T06:32:14.274Z,12.46
2022-10-14T06:32:54.180Z,12.55
2022-10-14T06:33:37.322Z,12.55
2022-10-14T06:34:18.208Z,12.53
2022-10-14T06:34:58.241Z,12.56
2022-10-14T06:35:38.193Z,12.60
2022-10-14T06:36:19.255Z,12.66
2022-10-14T06:37:02.242Z,12.70
2022-10-14T06:37:44.250Z,12.67
2022-10-14T06:38:24.179Z,12.74
2022-10-14T06:39:05.276Z,12.80
2022-10-14T06:39:45.236Z,12.85
2022-10-14T06:40:25.302Z,12.84
2022-10-14T06:41:05.169Z,12.87
2022-10-14T06:41:46.300Z,12.89
2022-10-14T06:42:26.640Z,12.86
2022-10-14T06:43:07.290Z,12.94
2022-10-14T06:43:47.200Z,12.96
2022-10-14T06:44:28.253Z,12.97
2022-10-14T06:45:08.204Z,13.02
2022-10-14T06:45:48.298Z,12.98
2022-10-14T06:46:28.175Z,13.07
2022-10-14T06:47:09.246Z,13.08
2022-10-14T06:47:50.175Z,13.08
2022-10-14T06:48:30.249Z,13.12
2022-10-14T06:49:10.177Z,13.10
2022-10-14T06:49:50.231Z,13.09
2022-10-14T06:50:30.204Z,13.08
2022-10-14T06:51:10.293Z,13.06
2022-10-14T06:51:50.163Z,13.08
2022-10-14T06:52:31.246Z,13.18
2022-10-14T06:53:11.157Z,13.15
2022-10-14T06:53:51.208Z,13.12
2022-10-14T06:54:34.440Z,13.24
2022-10-14T06:55:17.238Z,13.21
2022-10-14T06:56:07.254Z,13.26
2022-10-14T06:56:47.272Z,13.34
2022-10-14T06:57:27.182Z,13.28
2022-10-14T06:58:08.255Z,13.38
2022-10-14T06:58:48.168Z,13.29
2022-10-14T06:59:29.238Z,13.37
2022-10-14T07:00:11.142Z,13.38
2022-10-14T07:00:51.245Z,13.31
2022-10-14T07:01:31.329Z,13.27
2022-10-14T07:02:11.261Z,13.34
2022-10-14T07:02:54.001Z,13.46
2022-10-14T07:03:36.425Z,13.46
2022-10-14T07:04:16.151Z,13.41
2022-10-14T07:04:56.245Z,13.39
2022-10-14T07:05:43.188Z,13.34
2022-10-14T07:06:17.211Z,13.21
2022-10-14T07:06:58.195Z,13.28
2022-10-14T07:07:39.249Z,13.26
2022-10-14T07:08:20.151Z,13.27
2022-10-14T07:09:00.379Z,13.21
2022-10-14T07:09:40.154Z,13.01
2022-10-14T07:10:20.207Z,13.09
2022-10-14T07:11:00.145Z,13.10
2022-10-14T07:11:40.254Z,13.15
2022-10-14T07:12:20.587Z,13.07
2022-10-14T07:13:01.393Z,13.07
2022-10-14T07:13:42.141Z,13.13
2022-10-14T07:14:22.220Z,13.10
2022-10-14T07:15:02.149Z,13.14
2022-10-14T07:15:45.221Z,13.24
2022-10-14T07:16:25.156Z,13.28
2022-10-14T07:17:05.205Z,13.20
2022-10-14T07:17:46.177Z,13.33
2022-10-14T07:18:26.200Z,13.34
2022-10-14T07:19:06.138Z,13.37
2022-10-14T07:19:46.206Z,13.37
2022-10-14T07:20:27.140Z,13.46
2022-10-14T07:21:11.252Z,13.50
2022-10-14T07:21:53.165Z,13.47
2022-10-14T07:22:38.679Z,13.45
2022-10-14T07:23:20.165Z,13.47
2022-10-14T07:24:00.210Z,13.51
2022-10-14T07:24:41.133Z,13.56
2022-10-14T07:25:21.380Z,13.53
2022-10-14T07:26:07.125Z,13.58
2022-10-14T07:26:47.177Z,13.64
2022-10-14T07:27:27.146Z,13.67
2022-10-14T07:28:07.210Z,13.73
2022-10-14T07:28:48.182Z,13.66
2022-10-14T07:29:28.197Z,13.68
2022-10-14T07:30:10.656Z,13.74
2022-10-14T07:31:14.539Z,13.73
2022-10-14T07:31:54.129Z,13.73
2022-10-14T07:32:34.190Z,13.72
2022-10-14T07:33:15.117Z,13.70
2022-10-14T07:34:02.199Z,13.73
2022-10-14T07:34:56.147Z,13.77
2022-10-14T07:35:52.131Z,13.84
2022-10-14T07:36:46.132Z,13.84
2022-10-14T07:37:40.130Z,13.96
2022-10-14T07:38:34.129Z,13.97
2022-10-14T07:39:21.141Z,14.04
2022-10-14T07:39:55.197Z,14.04
2022-10-14T07:40:42.133Z,14.03
2022-10-14T07:41:21.257Z,14.08
2022-10-14T07:42:08.184Z,14.08
2022-10-14T07:42:42.507Z,14.08
2022-10-14T07:43:29.111Z,14.09
2022-10-14T07:44:09.028Z,14.14
2022-10-14T07:44:49.156Z,14.13
2022-10-14T07:45:35.061Z,14.15
2022-10-14T07:46:15.101Z,14.05
2022-10-14T07:46:55.203Z,14.03
2022-10-14T07:47:35.143Z,14.17
2022-10-14T07:48:19.584Z,14.17
2022-10-14T07:49:11.109Z,14.15
2022-10-14T07:49:58.146Z,14.23
2022-10-14T07:50:52.141Z,14.17
2022-10-14T07:51:47.113Z,14.28
2022-10-14T07:52:41.129Z,14.20
2022-10-14T07:53:36.127Z,14.31
2022-10-14T07:54:39.164Z,14.34
2022-10-14T07:55:19.152Z,14.31
2022-10-14T07:56:00.261Z,14.39
2022-10-14T07:56:41.112Z,14.34
2022-10-14T07:57:21.540Z,14.30
2022-10-14T07:58:03.104Z,14.37
2022-10-14T07:58:44.572Z,14.47
2022-10-14T07:59:27.096Z,14.49
2022-10-14T08:00:07.220Z,14.49
2022-10-14T08:00:47.148Z,14.55
2022-10-14T08:01:27.241Z,14.48
2022-10-14T08:02:07.166Z,14.45
2022-10-14T08:02:47.181Z,14.53
2022-10-14T08:03:29.104Z,14.57
2022-10-14T08:04:09.166Z,14.55
2022-10-14T08:04:50.101Z,14.55
2022-10-14T08:05:38.177Z,14.54
2022-10-14T08:06:20.209Z,14.52
2022-10-14T08:07:01.265Z,14.51
2022-10-14T08:07:42.097Z,14.57
2022-10-14T08:08:24.258Z,14.61
2022-10-14T08:09:05.098Z,14.57
2022-10-14T08:09:45.194Z,14.65
2022-10-14T08:10:25.085Z,14.66
2022-10-14T08:11:14.252Z,14.69
2022-10-14T08:11:55.116Z,14.63
2022-10-14T08:12:35.182Z,14.68
2022-10-14T08:13:15.092Z,14.57
2022-10-14T08:13:56.183Z,14.73
2022-10-14T08:14:37.093Z,14.66
2022-10-14T08:15:17.202Z,14.58
2022-10-14T08:15:57.096Z,14.62
2022-10-14T08:16:42.212Z,14.68
2022-10-14T08:17:23.123Z,14.71
2022-10-14T08:18:03.227Z,14.54
2022-10-14T08:18:43.069Z,14.64
2022-10-14T08:19:23.363Z,14.65
2022-10-14T08:20:06.111Z,14.65
2022-10-14T08:20:46.168Z,14.76
2022-10-14T08:21:28.097Z,14.73
2022-10-14T08:22:08.155Z,14.76
2022-10-14T08:22:48.100Z,14.83
2022-10-14T08:23:30.389Z,14.81
2022-10-14T08:24:11.081Z,14.87
2022-10-14T08:24:51.143Z,14.97
2022-10-14T08:25:32.078Z,15.05
2022-10-14T08:26:24.601Z,15.07
2022-10-14T08:27:07.089Z,15.04
2022-10-14T08:27:47.161Z,15.14
2022-10-14T08:28:28.211Z,15.19
2022-10-14T08:29:14.239Z,15.26
2022-10-14T08:29:54.078Z,15.32
2022-10-14T08:30:34.837Z,15.29
2022-10-14T08:31:15.072Z,15.36
2022-10-14T08:31:56.135Z,15.38
2022-10-14T08:32:36.092Z,15.38
2022-10-14T08:33:16.509Z,15.37
2022-10-14T08:33:57.121Z,15.38
2022-10-14T08:34:37.162Z,15.23
2022-10-14T08:35:18.077Z,15.31
2022-10-14T08:35:58.233Z,15.37
2022-10-14T08:36:39.067Z,15.35
2022-10-14T08:37:19.141Z,15.38
2022-10-14T08:38:09.066Z,15.48
2022-10-14T08:38:49.170Z,15.56
2022-10-14T08:39:29.110Z,15.55
2022-10-14T08:40:10.148Z,15.55
2022-10-14T08:41:09.068Z,15.61
2022-10-14T08:42:22.427Z,15.64
2022-10-14T08:43:11.081Z,15.73
2022-10-14T08:44:24.138Z,15.78
2022-10-14T08:45:26.114Z,15.84
2022-10-14T08:46:52.355Z,15.77
2022-10-14T08:47:43.078Z,15.89
2022-10-14T08:48:28.189Z,15.87
2022-10-14T08:49:25.082Z,15.89
2022-10-14T08:50:37.153Z,15.95
2022-10-14T08:51:32.048Z,15.83
2022-10-14T08:52:55.056Z,15.97
2022-10-14T08:54:16.081Z,15.91
2022-10-14T08:55:15.062Z,16.02
2022-10-14T08:56:08.089Z,16.02
2022-10-14T08:56:43.127Z,15.89
2022-10-14T08:57:36.078Z,16.01
2022-10-14T08:58:44.198Z,16.02
2022-10-14T08:59:32.074Z,15.98
2022-10-14T09:00:06.951Z,16.05
2022-10-14T09:00:59.142Z,16.10
2022-10-14T09:01:46.087Z,16.07
2022-10-14T09:03:02.130Z,16.14
2022-10-14T09:03:56.101Z,16.09
2022-10-14T09:04:50.066Z,16.12
2022-10-14T09:05:44.053Z,16.18
2022-10-14T09:06:44.057Z,16.24
2022-10-14T09:07:26.145Z,16.26
2022-10-14T09:08:08.181Z,16.27
2022-10-14T09:08:54.046Z,16.24
2022-10-14T09:09:48.650Z,16.25
2022-10-14T09:10:44.037Z,16.35
2022-10-14T09:11:32.037Z,16.33
2022-10-14T09:12:25.422Z,16.43
2022-10-14T09:13:16.037Z,16.52
2022-10-14T09:14:06.115Z,16.48
2022-10-14T09:14:57.042Z,16.53
2022-10-14T09:15:49.165Z,16.55
2022-10-14T09:16:43.029Z,16.59
2022-10-14T09:17:37.926Z,16.56
2022-10-14T09:18:54.602Z,16.59
2022-10-14T09:20:05.051Z,16.62
2022-10-14T09:21:00.046Z,16.65
2022-10-14T09:22:07.102Z,16.72
2022-10-14T09:23:14.056Z,16.73
2022-10-14T09:23:48.081Z,16.77
2022-10-14T09:24:44.028Z,16.74
2022-10-14T09:25:24.128Z,16.81
2022-10-14T09:26:24.036Z,16.84
2022-10-14T09:27:02.126Z,16.87
2022-10-14T09:27:50.048Z,16.81
2022-10-14T09:28:31.105Z,16.81
2022-10-14T09:29:41.031Z,16.92
2022-10-14T09:30:35.017Z,16.92
2022-10-14T09:31:29.110Z,16.85
2022-10-14T09:32:33.029Z,16.94
2022-10-14T09:33:31.066Z,17.02
2022-10-14T09:34:33.029Z,17.02
2022-10-14T09:35:47.100Z,17.10
2022-10-14T09:36:42.056Z,17.08
2022-10-14T09:37:49.049Z,17.22
2022-10-14T09:38:43.086Z,17.28
2022-10-14T09:39:38.041Z,17.33
2022-10-14T09:40:59.041Z,17.21